KIFP/IFP METAR and TAF weather

Enter ICAO airport designator
Station Type Date Time Source
KIFP METAR 2022/01/26 14:15 UTC NOAA

KIFP 261415Z AUTO 01022G28KT 10SM CLR 09/M05 A3021 RMK AO2


Station Type Date Time Source
KIFP Decoded METAR 2022/01/26 14:15 UTC NOAA

Bullhead City, Laughlin/Bullhead International Airport, AZ, United States (KIFP) 35-09-27N 114-33-34W
Jan 26, 2022 - 09:15 AM EST / 2022.01.26 1415 UTC
Wind: from the N (010 degrees) at 25 MPH (22 KT) gusting to 32 MPH (28 KT):0
Visibility: 10 mile(s):0
Sky conditions: clear
Temperature: 48 F (9 C)
Dew Point: 23 F (-5 C)
Relative Humidity: 36%
Pressure (altimeter): 30.21 in. Hg (1023 hPa)
ob: KIFP 261415Z AUTO 01022G28KT 10SM CLR 09/M05 A3021 RMK AO2
cycle: 14

Station Type Date Time Source
KIFP TAF 2022/01/26 14:24 UTC NOAA

TAF
AMD KIFP 261421Z 2614/2712 36020G30KT P6SM SKC
FM270200 01014KT P6SM SKC

Example: see airport list